MSR905 OJAI-HECA
Flight info
| Callsign | MSR905 |
|---|---|
| Flight time | 1h 8m |
| Altitude | 26000 |
| Route | LOSIL M319 ULINA M690 NOVPA N697 MENLI L677 CVO |
| Aircraft | B738/M-SDE2E3FGHIRWXY/LB1 |
Departure
| Time | 2026-05-06 21:18 |
|---|---|
| Airport | Queen Alia International Airport (OJAI) |
Arrival
| Time | 2026-05-06 22:26 |
|---|---|
| Airport | Cairo International Airport (HECA) |
| Time | Latitude | Longitude | Altitude | Speed | Heading |
|---|---|---|---|---|---|
| 2026-05-06 21:03 | 31.72125 | 35.99094 | 2404 ft | 0 kts | 352° |
| 2026-05-06 21:08 | 31.72118 | 35.99095 | 2404 ft | 2 kts | 347° |
| 2026-05-06 21:09 | 31.72103 | 35.99101 | 2404 ft | 2 kts | 343° |
| 2026-05-06 21:09 | 31.72089 | 35.99105 | 2404 ft | 2 kts | 345° |
| 2026-05-06 21:09 | 31.72074 | 35.99110 | 2404 ft | 2 kts | 344° |
| 2026-05-06 21:09 | 31.72061 | 35.99114 | 2404 ft | 1 kts | 343° |
| 2026-05-06 21:10 | 31.72053 | 35.99115 | 2404 ft | 1 kts | 40° |
| 2026-05-06 21:10 | 31.72048 | 35.99107 | 2404 ft | 1 kts | 80° |
| 2026-05-06 21:10 | 31.72048 | 35.99099 | 2404 ft | 0 kts | 81° |
| 2026-05-06 21:12 | 31.72058 | 35.99161 | 2404 ft | 16 kts | 79° |
| 2026-05-06 21:12 | 31.72089 | 35.99339 | 2404 ft | 22 kts | 80° |
| 2026-05-06 21:12 | 31.72092 | 35.99364 | 2404 ft | 0 kts | 82° |
| 2026-05-06 21:12 | 31.72096 | 35.99423 | 2404 ft | 13 kts | 95° |
| 2026-05-06 21:13 | 31.72006 | 35.99490 | 2404 ft | 20 kts | 164° |
| 2026-05-06 21:13 | 31.71954 | 35.99639 | 2404 ft | 24 kts | 83° |
| 2026-05-06 21:13 | 31.71984 | 35.99884 | 2404 ft | 34 kts | 80° |
| 2026-05-06 21:13 | 31.72028 | 36.00180 | 2404 ft | 38 kts | 80° |
| 2026-05-06 21:14 | 31.72072 | 36.00486 | 2404 ft | 37 kts | 80° |
| 2026-05-06 21:14 | 31.72102 | 36.00682 | 2404 ft | 36 kts | 79° |
| 2026-05-06 21:14 | 31.72160 | 36.01053 | 2404 ft | 33 kts | 79° |
| 2026-05-06 21:14 | 31.72192 | 36.01312 | 2404 ft | 31 kts | 81° |
| 2026-05-06 21:15 | 31.72226 | 36.01554 | 2404 ft | 28 kts | 81° |
| 2026-05-06 21:15 | 31.72235 | 36.01760 | 2404 ft | 19 kts | 128° |
| 2026-05-06 21:15 | 31.72133 | 36.01806 | 2404 ft | 10 kts | 169° |
| 2026-05-06 21:15 | 31.72128 | 36.01807 | 2404 ft | 0 kts | 169° |
| 2026-05-06 21:16 | 31.72123 | 36.01808 | 2404 ft | 4 kts | 169° |
| 2026-05-06 21:16 | 31.72047 | 36.01820 | 2404 ft | 17 kts | 176° |
| 2026-05-06 21:16 | 31.71977 | 36.01789 | 2404 ft | 0 kts | 258° |
| 2026-05-06 21:17 | 31.71977 | 36.01788 | 2404 ft | 0 kts | 257° |
| 2026-05-06 21:17 | 31.71974 | 36.01774 | 2404 ft | 14 kts | 257° |
| 2026-05-06 21:17 | 31.71914 | 36.01343 | 2404 ft | 90 kts | 260° |
| 2026-05-06 21:18 | 31.71770 | 36.00352 | 2405 ft | 152 kts | 260° |
| 2026-05-06 21:18 | 31.71544 | 35.98978 | 2667 ft | 183 kts | 258° |
| 2026-05-06 21:18 | 31.71019 | 35.97629 | 3526 ft | 183 kts | 227° |
| 2026-05-06 21:18 | 31.69897 | 35.97003 | 4215 ft | 198 kts | 188° |
| 2026-05-06 21:19 | 31.68924 | 35.97006 | 4501 ft | 214 kts | 181° |
| 2026-05-06 21:19 | 31.66919 | 35.96755 | 5353 ft | 224 kts | 195° |
| 2026-05-06 21:19 | 31.65395 | 35.96407 | 6028 ft | 235 kts | 194° |
| 2026-05-06 21:19 | 31.63657 | 35.96042 | 6216 ft | 267 kts | 193° |
| 2026-05-06 21:20 | 31.61744 | 35.95652 | 6700 ft | 287 kts | 193° |
| 2026-05-06 21:20 | 31.60412 | 35.95379 | 6824 ft | 306 kts | 193° |
| 2026-05-06 21:20 | 31.57482 | 35.94782 | 7336 ft | 333 kts | 192° |
| 2026-05-06 21:20 | 31.55098 | 35.94298 | 7642 ft | 354 kts | 192° |
| 2026-05-06 21:21 | 31.52676 | 35.93809 | 8497 ft | 356 kts | 192° |
| 2026-05-06 21:21 | 31.50221 | 35.93312 | 9222 ft | 361 kts | 192° |
| 2026-05-06 21:21 | 31.47756 | 35.92813 | 10047 ft | 363 kts | 192° |
| 2026-05-06 21:21 | 31.45267 | 35.92310 | 10869 ft | 363 kts | 192° |
| 2026-05-06 21:22 | 31.42763 | 35.91803 | 11575 ft | 367 kts | 192° |
| 2026-05-06 21:22 | 31.40279 | 35.91301 | 12390 ft | 366 kts | 192° |
| 2026-05-06 21:22 | 31.37751 | 35.90790 | 12930 ft | 373 kts | 192° |
| 2026-05-06 21:22 | 31.35185 | 35.90271 | 13718 ft | 372 kts | 192° |
| 2026-05-06 21:23 | 31.32628 | 35.89755 | 14285 ft | 377 kts | 192° |
| 2026-05-06 21:23 | 31.30030 | 35.89230 | 14926 ft | 379 kts | 192° |
| 2026-05-06 21:23 | 31.27418 | 35.88703 | 15536 ft | 381 kts | 193° |
| 2026-05-06 21:23 | 31.24802 | 35.88175 | 16095 ft | 384 kts | 193° |
| 2026-05-06 21:24 | 31.22150 | 35.87641 | 16669 ft | 387 kts | 193° |
| 2026-05-06 21:24 | 31.19488 | 35.87104 | 17199 ft | 390 kts | 193° |
| 2026-05-06 21:24 | 31.16809 | 35.86565 | 17715 ft | 393 kts | 193° |
| 2026-05-06 21:24 | 31.14138 | 35.86028 | 18237 ft | 395 kts | 194° |
| 2026-05-06 21:25 | 31.11405 | 35.85477 | 18699 ft | 398 kts | 194° |
| 2026-05-06 21:25 | 31.08667 | 35.84927 | 19190 ft | 400 kts | 194° |
| 2026-05-06 21:25 | 31.05917 | 35.84374 | 19633 ft | 403 kts | 194° |
| 2026-05-06 21:25 | 31.03149 | 35.83818 | 20073 ft | 406 kts | 194° |
| 2026-05-06 21:26 | 31.00344 | 35.83254 | 20496 ft | 409 kts | 194° |
| 2026-05-06 21:26 | 30.97552 | 35.82693 | 20868 ft | 412 kts | 194° |
| 2026-05-06 21:26 | 30.94703 | 35.82122 | 21272 ft | 415 kts | 194° |
| 2026-05-06 21:26 | 30.91842 | 35.81549 | 21631 ft | 418 kts | 194° |
| 2026-05-06 21:27 | 30.88969 | 35.80973 | 21983 ft | 421 kts | 194° |
| 2026-05-06 21:27 | 30.86048 | 35.80388 | 22344 ft | 424 kts | 195° |
| 2026-05-06 21:27 | 30.83185 | 35.79695 | 22714 ft | 424 kts | 199° |
| 2026-05-06 21:27 | 30.80366 | 35.78666 | 23038 ft | 422 kts | 206° |
| 2026-05-06 21:28 | 30.77739 | 35.77193 | 23432 ft | 420 kts | 212° |
| 2026-05-06 21:28 | 30.75158 | 35.75591 | 23712 ft | 424 kts | 212° |
| 2026-05-06 21:28 | 30.72531 | 35.74007 | 24081 ft | 425 kts | 211° |
| 2026-05-06 21:28 | 30.69899 | 35.72435 | 24380 ft | 427 kts | 212° |
| 2026-05-06 21:29 | 30.67278 | 35.70854 | 24647 ft | 430 kts | 212° |
| 2026-05-06 21:29 | 30.64615 | 35.69244 | 24945 ft | 432 kts | 212° |
| 2026-05-06 21:29 | 30.61927 | 35.67619 | 25190 ft | 435 kts | 212° |
| 2026-05-06 21:29 | 30.59229 | 35.65989 | 25463 ft | 437 kts | 212° |
| 2026-05-06 21:30 | 30.56514 | 35.64348 | 25727 ft | 438 kts | 212° |
| 2026-05-06 21:30 | 30.53809 | 35.62712 | 25939 ft | 441 kts | 212° |
| 2026-05-06 21:30 | 30.51102 | 35.61076 | 26037 ft | 445 kts | 212° |
| 2026-05-06 21:30 | 30.48335 | 35.59405 | 26046 ft | 443 kts | 212° |
| 2026-05-06 21:31 | 30.45608 | 35.57760 | 26049 ft | 441 kts | 213° |
| 2026-05-06 21:31 | 30.42881 | 35.56115 | 26049 ft | 441 kts | 212° |
| 2026-05-06 21:31 | 30.40144 | 35.54463 | 26047 ft | 441 kts | 212° |
| 2026-05-06 21:31 | 30.37461 | 35.52846 | 26047 ft | 441 kts | 213° |
| 2026-05-06 21:32 | 30.34757 | 35.51216 | 26047 ft | 441 kts | 212° |
| 2026-05-06 21:32 | 30.29273 | 35.47915 | 26047 ft | 441 kts | 213° |
| 2026-05-06 21:32 | 30.26556 | 35.46281 | 26047 ft | 441 kts | 212° |
| 2026-05-06 21:33 | 30.23857 | 35.44671 | 26047 ft | 442 kts | 211° |
| 2026-05-06 21:33 | 30.21006 | 35.43225 | 26048 ft | 446 kts | 206° |
| 2026-05-06 21:33 | 30.18007 | 35.42070 | 26047 ft | 449 kts | 203° |
| 2026-05-06 21:33 | 30.15056 | 35.40990 | 26047 ft | 448 kts | 204° |
| 2026-05-06 21:34 | 30.12081 | 35.39867 | 26047 ft | 448 kts | 204° |
| 2026-05-06 21:34 | 30.09079 | 35.38730 | 26047 ft | 448 kts | 204° |
| 2026-05-06 21:34 | 30.06129 | 35.37625 | 26047 ft | 448 kts | 204° |
| 2026-05-06 21:34 | 30.03178 | 35.36526 | 26047 ft | 448 kts | 204° |
| 2026-05-06 21:35 | 30.00168 | 35.35407 | 26047 ft | 448 kts | 204° |
| 2026-05-06 21:35 | 29.97228 | 35.34316 | 26046 ft | 449 kts | 203° |
| 2026-05-06 21:35 | 29.94369 | 35.33257 | 26047 ft | 449 kts | 203° |
| 2026-05-06 21:35 | 29.91304 | 35.32123 | 26047 ft | 449 kts | 203° |
| 2026-05-06 21:36 | 29.88325 | 35.31023 | 26047 ft | 449 kts | 203° |
| 2026-05-06 21:36 | 29.85396 | 35.29942 | 26047 ft | 448 kts | 203° |
| 2026-05-06 21:36 | 29.82381 | 35.28831 | 26047 ft | 448 kts | 203° |
| 2026-05-06 21:36 | 29.79423 | 35.27741 | 26047 ft | 449 kts | 203° |
| 2026-05-06 21:37 | 29.76447 | 35.26646 | 26047 ft | 449 kts | 203° |
| 2026-05-06 21:37 | 29.73429 | 35.25536 | 26047 ft | 448 kts | 203° |
| 2026-05-06 21:37 | 29.70462 | 35.24446 | 26046 ft | 448 kts | 203° |
| 2026-05-06 21:37 | 29.67501 | 35.23359 | 26047 ft | 449 kts | 203° |
| 2026-05-06 21:38 | 29.64494 | 35.22256 | 26047 ft | 449 kts | 203° |
| 2026-05-06 21:38 | 29.61581 | 35.21097 | 26042 ft | 445 kts | 208° |
| 2026-05-06 21:38 | 29.58817 | 35.19439 | 26047 ft | 439 kts | 217° |
| 2026-05-06 21:38 | 29.56435 | 35.17303 | 26047 ft | 432 kts | 227° |
| 2026-05-06 21:39 | 29.54425 | 35.14746 | 26051 ft | 429 kts | 233° |
| 2026-05-06 21:39 | 29.52526 | 35.12101 | 26047 ft | 430 kts | 233° |
| 2026-05-06 21:39 | 29.50579 | 35.09473 | 26046 ft | 430 kts | 232° |
| 2026-05-06 21:39 | 29.48621 | 35.06858 | 26046 ft | 430 kts | 232° |
| 2026-05-06 21:40 | 29.46694 | 35.04269 | 26046 ft | 429 kts | 232° |
| 2026-05-06 21:40 | 29.44730 | 35.01622 | 26047 ft | 430 kts | 232° |
| 2026-05-06 21:40 | 29.42751 | 34.99080 | 26046 ft | 432 kts | 229° |
| 2026-05-06 21:40 | 29.40523 | 34.96714 | 26045 ft | 436 kts | 223° |
| 2026-05-06 21:41 | 29.38055 | 34.94642 | 26050 ft | 440 kts | 219° |
| 2026-05-06 21:41 | 29.35489 | 34.92631 | 26047 ft | 441 kts | 219° |
| 2026-05-06 21:41 | 29.32973 | 34.90618 | 26047 ft | 441 kts | 220° |
| 2026-05-06 21:41 | 29.30488 | 34.88620 | 26047 ft | 441 kts | 220° |
| 2026-05-06 21:42 | 29.27942 | 34.86590 | 26046 ft | 442 kts | 220° |
| 2026-05-06 21:42 | 29.25384 | 34.84563 | 26047 ft | 443 kts | 220° |
| 2026-05-06 21:42 | 29.22838 | 34.82548 | 26047 ft | 444 kts | 220° |
| 2026-05-06 21:42 | 29.20293 | 34.80537 | 26047 ft | 445 kts | 220° |
| 2026-05-06 21:43 | 29.17758 | 34.78538 | 26047 ft | 445 kts | 220° |
| 2026-05-06 21:43 | 29.15206 | 34.76528 | 26047 ft | 445 kts | 220° |
| 2026-05-06 21:43 | 29.12654 | 34.74522 | 26047 ft | 444 kts | 220° |
| 2026-05-06 21:43 | 29.10241 | 34.72296 | 26046 ft | 438 kts | 229° |
| 2026-05-06 21:44 | 29.08314 | 34.69643 | 26048 ft | 434 kts | 239° |
| 2026-05-06 21:44 | 29.06897 | 34.66597 | 26046 ft | 431 kts | 251° |
| 2026-05-06 21:44 | 29.06121 | 34.63298 | 26048 ft | 429 kts | 262° |
| 2026-05-06 21:44 | 29.05958 | 34.59866 | 26048 ft | 430 kts | 272° |
| 2026-05-06 21:45 | 29.06368 | 34.56456 | 26045 ft | 431 kts | 282° |
| 2026-05-06 21:45 | 29.07269 | 34.53214 | 26048 ft | 432 kts | 287° |
| 2026-05-06 21:45 | 29.08287 | 34.49929 | 26046 ft | 431 kts | 287° |
| 2026-05-06 21:45 | 29.09242 | 34.46679 | 26047 ft | 430 kts | 286° |
| 2026-05-06 21:46 | 29.10181 | 34.43428 | 26046 ft | 430 kts | 286° |
| 2026-05-06 21:46 | 29.11138 | 34.40144 | 26047 ft | 429 kts | 286° |
| 2026-05-06 21:46 | 29.12080 | 34.36920 | 26047 ft | 429 kts | 286° |
| 2026-05-06 21:46 | 29.13034 | 34.33649 | 26047 ft | 429 kts | 285° |
| 2026-05-06 21:47 | 29.13978 | 34.30402 | 26044 ft | 429 kts | 285° |
| 2026-05-06 21:47 | 29.14927 | 34.27142 | 26032 ft | 429 kts | 286° |
| 2026-05-06 21:47 | 29.15870 | 34.23899 | 26022 ft | 429 kts | 286° |
| 2026-05-06 21:47 | 29.16810 | 34.20664 | 26013 ft | 429 kts | 285° |
| 2026-05-06 21:48 | 29.17692 | 34.17627 | 26007 ft | 429 kts | 286° |
| 2026-05-06 21:48 | 29.18679 | 34.14223 | 26001 ft | 429 kts | 286° |
| 2026-05-06 21:48 | 29.19619 | 34.10981 | 25998 ft | 429 kts | 286° |
| 2026-05-06 21:48 | 29.20559 | 34.07732 | 25996 ft | 429 kts | 286° |
| 2026-05-06 21:49 | 29.21502 | 34.04471 | 25994 ft | 429 kts | 286° |
| 2026-05-06 21:49 | 29.22440 | 34.01226 | 25991 ft | 429 kts | 285° |
| 2026-05-06 21:49 | 29.23370 | 33.98002 | 25985 ft | 429 kts | 285° |
| 2026-05-06 21:49 | 29.24322 | 33.94699 | 25978 ft | 429 kts | 286° |
| 2026-05-06 21:50 | 29.25253 | 33.91470 | 25969 ft | 429 kts | 286° |
| 2026-05-06 21:50 | 29.26188 | 33.88224 | 25965 ft | 427 kts | 286° |
| 2026-05-06 21:50 | 29.27115 | 33.85008 | 25946 ft | 414 kts | 286° |
| 2026-05-06 21:50 | 29.28008 | 33.81909 | 25939 ft | 394 kts | 285° |
| 2026-05-06 21:51 | 29.28846 | 33.78998 | 25943 ft | 373 kts | 285° |
| 2026-05-06 21:51 | 29.29632 | 33.76258 | 25947 ft | 352 kts | 285° |
| 2026-05-06 21:51 | 29.30381 | 33.73646 | 25951 ft | 338 kts | 285° |
| 2026-05-06 21:51 | 29.31114 | 33.71074 | 25928 ft | 342 kts | 285° |
| 2026-05-06 21:52 | 29.31865 | 33.68434 | 25582 ft | 351 kts | 285° |
| 2026-05-06 21:52 | 29.32630 | 33.65759 | 25197 ft | 348 kts | 285° |
| 2026-05-06 21:52 | 29.33375 | 33.63155 | 24824 ft | 345 kts | 285° |
| 2026-05-06 21:52 | 29.33874 | 33.61406 | 24572 ft | 343 kts | 285° |
| 2026-05-06 21:53 | 29.34855 | 33.57965 | 24072 ft | 341 kts | 285° |
| 2026-05-06 21:53 | 29.35591 | 33.55383 | 23697 ft | 340 kts | 285° |
| 2026-05-06 21:53 | 29.36082 | 33.53656 | 23445 ft | 340 kts | 285° |
| 2026-05-06 21:53 | 29.37059 | 33.50223 | 22943 ft | 339 kts | 285° |
| 2026-05-06 21:54 | 29.37790 | 33.47651 | 22566 ft | 338 kts | 285° |
| 2026-05-06 21:54 | 29.38512 | 33.45111 | 22192 ft | 337 kts | 285° |
| 2026-05-06 21:54 | 29.39239 | 33.42550 | 21815 ft | 336 kts | 285° |
| 2026-05-06 21:54 | 29.39959 | 33.40010 | 21438 ft | 335 kts | 285° |
| 2026-05-06 21:55 | 29.40679 | 33.37468 | 21061 ft | 334 kts | 285° |
| 2026-05-06 21:55 | 29.41395 | 33.34939 | 20685 ft | 333 kts | 285° |
| 2026-05-06 21:55 | 29.42109 | 33.32415 | 20308 ft | 332 kts | 285° |
| 2026-05-06 21:55 | 29.42814 | 33.29922 | 19935 ft | 331 kts | 285° |
| 2026-05-06 21:56 | 29.43524 | 33.27408 | 19557 ft | 329 kts | 285° |
| 2026-05-06 21:56 | 29.44234 | 33.24889 | 19178 ft | 328 kts | 285° |
| 2026-05-06 21:56 | 29.44941 | 33.22382 | 18800 ft | 328 kts | 285° |
| 2026-05-06 21:56 | 29.45637 | 33.19914 | 18426 ft | 327 kts | 285° |
| 2026-05-06 21:57 | 29.46335 | 33.17437 | 18050 ft | 326 kts | 285° |
| 2026-05-06 21:57 | 29.47032 | 33.14956 | 17712 ft | 324 kts | 285° |
| 2026-05-06 21:57 | 29.47725 | 33.12494 | 17412 ft | 323 kts | 285° |
| 2026-05-06 21:57 | 29.48418 | 33.10024 | 17110 ft | 323 kts | 285° |
| 2026-05-06 21:58 | 29.49105 | 33.07577 | 16810 ft | 322 kts | 286° |
| 2026-05-06 21:58 | 29.49797 | 33.05109 | 16505 ft | 320 kts | 286° |
| 2026-05-06 21:58 | 29.50477 | 33.02684 | 16204 ft | 318 kts | 287° |
| 2026-05-06 21:58 | 29.51158 | 33.00251 | 15900 ft | 317 kts | 287° |
| 2026-05-06 21:59 | 29.51828 | 32.97856 | 15600 ft | 315 kts | 287° |
| 2026-05-06 21:59 | 29.52501 | 32.95448 | 15298 ft | 314 kts | 288° |
| 2026-05-06 21:59 | 29.53170 | 32.93053 | 14996 ft | 313 kts | 288° |
| 2026-05-06 21:59 | 29.53840 | 32.90650 | 14693 ft | 313 kts | 288° |
| 2026-05-06 22:00 | 29.54499 | 32.88287 | 14393 ft | 312 kts | 288° |
| 2026-05-06 22:00 | 29.55165 | 32.85897 | 14090 ft | 311 kts | 288° |
| 2026-05-06 22:00 | 29.55829 | 32.83514 | 13787 ft | 311 kts | 288° |
| 2026-05-06 22:00 | 29.56492 | 32.81131 | 13484 ft | 310 kts | 288° |
| 2026-05-06 22:01 | 29.57147 | 32.78773 | 13183 ft | 309 kts | 288° |
| 2026-05-06 22:01 | 29.57801 | 32.76421 | 12882 ft | 309 kts | 288° |
| 2026-05-06 22:01 | 29.58460 | 32.74047 | 12578 ft | 308 kts | 288° |
| 2026-05-06 22:01 | 29.59107 | 32.71715 | 12279 ft | 308 kts | 288° |
| 2026-05-06 22:02 | 29.59764 | 32.69343 | 11975 ft | 307 kts | 288° |
| 2026-05-06 22:02 | 29.60364 | 32.67009 | 11676 ft | 307 kts | 285° |
| 2026-05-06 22:02 | 29.60894 | 32.64601 | 11371 ft | 305 kts | 285° |
| 2026-05-06 22:02 | 29.61424 | 32.62242 | 11069 ft | 304 kts | 286° |
| 2026-05-06 22:03 | 29.61958 | 32.59897 | 10769 ft | 303 kts | 286° |
| 2026-05-06 22:03 | 29.62489 | 32.57555 | 10468 ft | 302 kts | 286° |
| 2026-05-06 22:03 | 29.63019 | 32.55217 | 10166 ft | 301 kts | 286° |
| 2026-05-06 22:03 | 29.63547 | 32.52884 | 9864 ft | 300 kts | 286° |
| 2026-05-06 22:04 | 29.64075 | 32.50554 | 9562 ft | 299 kts | 286° |
| 2026-05-06 22:04 | 29.64599 | 32.48241 | 9261 ft | 298 kts | 286° |
| 2026-05-06 22:04 | 29.65119 | 32.45941 | 9108 ft | 293 kts | 287° |
| 2026-05-06 22:04 | 29.65633 | 32.43665 | 9102 ft | 296 kts | 287° |
| 2026-05-06 22:05 | 29.66158 | 32.41341 | 9100 ft | 297 kts | 287° |
| 2026-05-06 22:05 | 29.66677 | 32.39041 | 9100 ft | 297 kts | 287° |
| 2026-05-06 22:05 | 29.67200 | 32.36718 | 9101 ft | 297 kts | 287° |
| 2026-05-06 22:05 | 29.67723 | 32.34395 | 9101 ft | 297 kts | 286° |
| 2026-05-06 22:06 | 29.68240 | 32.32096 | 9101 ft | 297 kts | 286° |
| 2026-05-06 22:06 | 29.68761 | 32.29779 | 9101 ft | 297 kts | 286° |
| 2026-05-06 22:06 | 29.69279 | 32.27473 | 9101 ft | 297 kts | 286° |
| 2026-05-06 22:06 | 29.69797 | 32.25164 | 9101 ft | 297 kts | 286° |
| 2026-05-06 22:07 | 29.70317 | 32.22844 | 9101 ft | 297 kts | 286° |
| 2026-05-06 22:07 | 29.70833 | 32.20542 | 9101 ft | 297 kts | 286° |
| 2026-05-06 22:07 | 29.71351 | 32.18229 | 9101 ft | 297 kts | 286° |
| 2026-05-06 22:07 | 29.71862 | 32.15940 | 9101 ft | 297 kts | 286° |
| 2026-05-06 22:08 | 29.72378 | 32.13633 | 9101 ft | 297 kts | 286° |
| 2026-05-06 22:08 | 29.72725 | 32.12077 | 9101 ft | 297 kts | 286° |
| 2026-05-06 22:08 | 29.73410 | 32.09004 | 9101 ft | 297 kts | 286° |
| 2026-05-06 22:08 | 29.73928 | 32.06682 | 9101 ft | 297 kts | 286° |
| 2026-05-06 22:09 | 29.74442 | 32.04371 | 9101 ft | 297 kts | 286° |
| 2026-05-06 22:09 | 29.74952 | 32.02076 | 9101 ft | 297 kts | 286° |
| 2026-05-06 22:09 | 29.75468 | 31.99758 | 9101 ft | 297 kts | 286° |
| 2026-05-06 22:09 | 29.75981 | 31.97444 | 9101 ft | 297 kts | 286° |
| 2026-05-06 22:10 | 29.76496 | 31.95126 | 9101 ft | 297 kts | 286° |
| 2026-05-06 22:10 | 29.77009 | 31.92809 | 9101 ft | 297 kts | 286° |
| 2026-05-06 22:10 | 29.77515 | 31.90523 | 9096 ft | 291 kts | 286° |
| 2026-05-06 22:10 | 29.78002 | 31.88315 | 9017 ft | 278 kts | 286° |
| 2026-05-06 22:11 | 29.78699 | 31.86232 | 8631 ft | 274 kts | 304° |
| 2026-05-06 22:11 | 29.79831 | 31.84492 | 8272 ft | 270 kts | 309° |
| 2026-05-06 22:11 | 29.80964 | 31.82771 | 7894 ft | 268 kts | 308° |
| 2026-05-06 22:11 | 29.82068 | 31.81056 | 7613 ft | 262 kts | 308° |
| 2026-05-06 22:12 | 29.83002 | 31.79272 | 7600 ft | 262 kts | 292° |
| 2026-05-06 22:12 | 29.83503 | 31.77225 | 7525 ft | 267 kts | 287° |
| 2026-05-06 22:12 | 29.84006 | 31.75221 | 7285 ft | 259 kts | 290° |
| 2026-05-06 22:12 | 29.84541 | 31.73282 | 7049 ft | 249 kts | 290° |
| 2026-05-06 22:13 | 29.85062 | 31.71403 | 6718 ft | 243 kts | 290° |
| 2026-05-06 22:13 | 29.85572 | 31.69582 | 6390 ft | 237 kts | 291° |
| 2026-05-06 22:13 | 29.86081 | 31.67778 | 6061 ft | 232 kts | 291° |
| 2026-05-06 22:13 | 29.86572 | 31.66038 | 5737 ft | 228 kts | 291° |
| 2026-05-06 22:14 | 29.87059 | 31.64312 | 5441 ft | 219 kts | 291° |
| 2026-05-06 22:14 | 29.87513 | 31.62703 | 5105 ft | 210 kts | 291° |
| 2026-05-06 22:14 | 29.87960 | 31.61119 | 4775 ft | 201 kts | 291° |
| 2026-05-06 22:14 | 29.88382 | 31.59627 | 4440 ft | 191 kts | 292° |
| 2026-05-06 22:15 | 29.88783 | 31.58204 | 4106 ft | 183 kts | 292° |
| 2026-05-06 22:15 | 29.89174 | 31.56822 | 3778 ft | 178 kts | 292° |
| 2026-05-06 22:15 | 29.89554 | 31.55476 | 3456 ft | 177 kts | 292° |
| 2026-05-06 22:15 | 29.89931 | 31.54139 | 3142 ft | 177 kts | 292° |
| 2026-05-06 22:16 | 29.90301 | 31.52825 | 3121 ft | 175 kts | 292° |
| 2026-05-06 22:16 | 29.90684 | 31.51465 | 3099 ft | 176 kts | 292° |
| 2026-05-06 22:16 | 29.91064 | 31.50112 | 3098 ft | 177 kts | 292° |
| 2026-05-06 22:16 | 29.91446 | 31.48754 | 3099 ft | 177 kts | 292° |
| 2026-05-06 22:17 | 29.91825 | 31.47406 | 3104 ft | 174 kts | 292° |
| 2026-05-06 22:17 | 29.92180 | 31.46140 | 3097 ft | 161 kts | 292° |
| 2026-05-06 22:17 | 29.92526 | 31.44912 | 3088 ft | 160 kts | 292° |
| 2026-05-06 22:17 | 29.92868 | 31.43693 | 3099 ft | 159 kts | 292° |
| 2026-05-06 22:18 | 29.93209 | 31.42481 | 3103 ft | 159 kts | 292° |
| 2026-05-06 22:18 | 29.93551 | 31.41261 | 3057 ft | 159 kts | 292° |
| 2026-05-06 22:18 | 29.93886 | 31.40066 | 3007 ft | 158 kts | 292° |
| 2026-05-06 22:18 | 29.94228 | 31.38845 | 2957 ft | 158 kts | 292° |
| 2026-05-06 22:19 | 29.94567 | 31.37637 | 2907 ft | 158 kts | 292° |
| 2026-05-06 22:19 | 29.94905 | 31.36428 | 2857 ft | 158 kts | 292° |
| 2026-05-06 22:19 | 29.95247 | 31.35208 | 2798 ft | 158 kts | 292° |
| 2026-05-06 22:19 | 29.95583 | 31.34008 | 2736 ft | 158 kts | 292° |
| 2026-05-06 22:20 | 29.95925 | 31.32785 | 2702 ft | 157 kts | 292° |
| 2026-05-06 22:20 | 29.96261 | 31.31584 | 2699 ft | 158 kts | 292° |
| 2026-05-06 22:20 | 29.96601 | 31.30369 | 2700 ft | 158 kts | 292° |
| 2026-05-06 22:20 | 29.96938 | 31.29173 | 2687 ft | 158 kts | 292° |
| 2026-05-06 22:21 | 29.97277 | 31.27956 | 2689 ft | 158 kts | 292° |
| 2026-05-06 22:21 | 29.97621 | 31.26751 | 2686 ft | 157 kts | 297° |
| 2026-05-06 22:21 | 29.98325 | 31.25875 | 2676 ft | 148 kts | 347° |
| 2026-05-06 22:21 | 29.99328 | 31.25964 | 2693 ft | 149 kts | 23° |
| 2026-05-06 22:22 | 30.00095 | 31.26738 | 2713 ft | 149 kts | 51° |
| 2026-05-06 22:22 | 30.00782 | 31.27645 | 2679 ft | 149 kts | 43° |
| 2026-05-06 22:22 | 30.01487 | 31.28536 | 2679 ft | 150 kts | 46° |
| 2026-05-06 22:22 | 30.02172 | 31.29450 | 2687 ft | 150 kts | 46° |
| 2026-05-06 22:23 | 30.02837 | 31.30362 | 2636 ft | 151 kts | 48° |
| 2026-05-06 22:23 | 30.03477 | 31.31321 | 2532 ft | 150 kts | 50° |
| 2026-05-06 22:23 | 30.04125 | 31.32284 | 2360 ft | 150 kts | 48° |
| 2026-05-06 22:23 | 30.04792 | 31.33184 | 2173 ft | 149 kts | 45° |
| 2026-05-06 22:24 | 30.05492 | 31.34057 | 1897 ft | 148 kts | 44° |
| 2026-05-06 22:24 | 30.06206 | 31.34911 | 1627 ft | 147 kts | 45° |
| 2026-05-06 22:24 | 30.06875 | 31.35799 | 1365 ft | 145 kts | 46° |
| 2026-05-06 22:24 | 30.07551 | 31.36675 | 1095 ft | 145 kts | 46° |
| 2026-05-06 22:25 | 30.08190 | 31.37518 | 951 ft | 137 kts | 47° |
| 2026-05-06 22:25 | 30.08824 | 31.38343 | 749 ft | 136 kts | 46° |
| 2026-05-06 22:25 | 30.09450 | 31.39144 | 585 ft | 131 kts | 47° |
| 2026-05-06 22:25 | 30.10056 | 31.39939 | 386 ft | 133 kts | 47° |
| 2026-05-06 22:26 | 30.10681 | 31.40783 | 389 ft | 147 kts | 49° |
| 2026-05-06 22:26 | 30.11192 | 31.41447 | 377 ft | 59 kts | 47° |
| 2026-05-06 22:26 | 30.11386 | 31.41678 | 371 ft | 37 kts | 47° |
| 2026-05-06 22:26 | 30.11573 | 31.41933 | 370 ft | 40 kts | 49° |
| 2026-05-06 22:27 | 30.11769 | 31.42149 | 370 ft | 40 kts | 34° |
| 2026-05-06 22:27 | 30.11954 | 31.42232 | 365 ft | 22 kts | 4° |
| 2026-05-06 22:27 | 30.11984 | 31.42105 | 358 ft | 22 kts | 237° |
| 2026-05-06 22:27 | 30.11875 | 31.41961 | 357 ft | 25 kts | 229° |
| 2026-05-06 22:28 | 30.11815 | 31.41879 | 357 ft | 0 kts | 228° |
| 2026-05-06 22:28 | 30.11814 | 31.41878 | 357 ft | 0 kts | 228° |
| 2026-05-06 22:28 | 30.11757 | 31.41802 | 355 ft | 26 kts | 229° |
| 2026-05-06 22:29 | 30.11604 | 31.41598 | 355 ft | 40 kts | 229° |
| 2026-05-06 22:29 | 30.11422 | 31.41352 | 359 ft | 41 kts | 231° |
| 2026-05-06 22:29 | 30.11227 | 31.41096 | 365 ft | 40 kts | 226° |
| 2026-05-06 22:29 | 30.11042 | 31.40850 | 371 ft | 38 kts | 229° |
| 2026-05-06 22:30 | 30.10868 | 31.40619 | 372 ft | 38 kts | 229° |
| 2026-05-06 22:30 | 30.10732 | 31.40439 | 369 ft | 3 kts | 230° |
| 2026-05-06 22:30 | 30.10731 | 31.40438 | 369 ft | 0 kts | 230° |
| 2026-05-06 22:31 | 30.10729 | 31.40435 | 369 ft | 3 kts | 230° |
| 2026-05-06 22:31 | 30.10701 | 31.40385 | 368 ft | 10 kts | 245° |
| 2026-05-06 22:32 | 30.10703 | 31.40278 | 363 ft | 16 kts | 265° |
| 2026-05-06 22:32 | 30.10646 | 31.40162 | 361 ft | 18 kts | 233° |
| 2026-05-06 22:32 | 30.10562 | 31.40030 | 361 ft | 21 kts | 230° |
| 2026-05-06 22:32 | 30.10504 | 31.39898 | 359 ft | 19 kts | 289° |
| 2026-05-06 22:33 | 30.10624 | 31.39832 | 350 ft | 15 kts | 352° |
| 2026-05-06 22:33 | 30.10717 | 31.39822 | 345 ft | 13 kts | 333° |
| 2026-05-06 22:33 | 30.10780 | 31.39838 | 343 ft | 9 kts | 50° |
| 2026-05-06 22:33 | 30.10788 | 31.39858 | 343 ft | 0 kts | 69° |
| 2026-05-06 22:34 | 30.10788 | 31.39859 | 343 ft | 0 kts | 74° |
| 2026-05-06 22:34 | 30.10791 | 31.39882 | 344 ft | 0 kts | 78° |